Terminal Aerodrome Forecast
Issued by NWS Charleston, WV

Current Version | Previous Version | Graphics & Text | Print | Product List | Glossary On
Versions: 1 2 3 4 5 6 7 8 9 10 11 12 13 14 15 16 17 18 19 20 21 22 23 24 25 26 27 28 29 30 31 32
000
FTUS41 KRLX 191500 AAA
TAFEKN
TAF AMD
KEKN 191512Z 1915/2012 14005KT 6SM -RA OVC060
      TEMPO 1916/1919 5SM RA BKN030 OVC060
     FM191900 17006KT 6SM SHRA OVC050
     FM192200 16006KT P6SM OVC035
     FM201000 VRB03KT 3SM BR BKN035=

USA.gov is the U.S. government's official web portal to all federal, state and local government web resources and services.